Time;durP1;ratioP1;P1;durP2;ratioP2;P2;SDS_P1;SDS_P2;PMS_P1;PMS_P2;Temp;Humidity;BMP_temperature;BMP_pressure;BME280_temperature;BME280_humidity;BME280_pressure;Samples;Min_cycle;Max_cycle;Signal;HPM_P1;HPM_P2
2023/04/04 07:13:47;;;;;;;3.90;3.35;;;;;;;;;;5975811;23;20145;-80
2023/04/04 09:19:53;;;;;;;6.00;2.83;;;;;;;;;;5221788;23;20056;-81
2023/04/04 09:22:18;;;;;;;5.00;2.83;;;;;;;;;;4938789;29;20379;-80
2023/04/04 09:24:44;;;;;;;8.68;2.95;;;;;;;;;;4939274;29;20067;-80
2023/04/04 09:27:11;;;;;;;4.13;2.53;;;;;;;;;;4939406;29;20027;-84
2023/04/04 09:29:38;;;;;;;7.78;3.38;;;;;;;;;;4939130;29;20028;-83
2023/04/04 09:32:07;;;;;;;6.78;2.92;;;;;;;;;;4939223;29;20031;-81
2023/04/04 09:34:32;;;;;;;4.30;2.87;;;;;;;;;;4938946;29;20032;-82
2023/04/04 09:36:59;;;;;;;4.20;2.30;;;;;;;;;;4939295;29;20095;-81
2023/04/04 09:39:24;;;;;;;3.80;2.63;;;;;;;;;;4938832;29;20035;-84
2023/04/04 09:41:50;;;;;;;4.85;2.78;;;;;;;;;;4939333;29;20028;-85
2023/04/04 09:44:16;;;;;;;6.38;3.20;;;;;;;;;;4922326;29;20019;-84
2023/04/04 09:46:41;;;;;;;8.35;4.43;;;;;;;;;;4938616;29;20023;-86
2023/04/04 09:49:17;;;;;;;10.05;3.83;;;;;;;;;;4938451;29;20471;-82
2023/04/04 09:51:47;;;;;;;6.65;4.10;;;;;;;;;;4938834;29;20059;-86
2023/04/04 09:54:20;;;;;;;5.13;3.80;;;;;;;;;;4938805;29;20031;-83
2023/04/04 09:56:46;;;;;;;6.22;3.25;;;;;;;;;;4938438;29;20031;-83
2023/04/04 09:59:12;;;;;;;5.95;3.33;;;;;;;;;;4938619;29;20032;-84
2023/04/04 10:01:38;;;;;;;7.32;3.50;;;;;;;;;;4938590;29;20114;-82
2023/04/04 10:04:05;;;;;;;7.03;3.40;;;;;;;;;;4938645;29;20249;-82
2023/04/04 10:06:31;;;;;;;4.97;3.80;;;;;;;;;;4938437;29;20035;-82
2023/04/04 10:08:57;;;;;;;5.50;3.17;;;;;;;;;;4938539;29;20031;-83
2023/04/04 10:11:33;;;;;;;4.20;3.30;;;;;;;;;;4938671;29;20031;-85
2023/04/04 10:13:59;;;;;;;3.80;3.42;;;;;;;;;;4938284;29;20055;-84
2023/04/04 10:16:25;;;;;;;3.83;2.90;;;;;;;;;;4921264;29;20510;-85
2023/04/04 10:18:51;;;;;;;5.13;2.90;;;;;;;;;;4938601;29;20036;-82
2023/04/04 10:21:17;;;;;;;6.72;3.00;;;;;;;;;;4921158;29;20055;-85
2023/04/04 10:23:47;;;;;;;6.53;3.33;;;;;;;;;;4938372;29;20368;-85
2023/04/04 10:26:12;;;;;;;;;;;;;;;;;;4938563;29;20487;-82
2023/04/04 10:28:38;;;;;;;4.80;3.10;;;;;;;;;;4938102;29;19919;-84
2023/04/04 10:31:22;;;;;;;6.53;2.97;;;;;;;;;;4938339;29;20035;-85
2023/04/04 10:34:13;;;;;;;6.15;3.28;;;;;;;;;;4938126;29;20047;-83
2023/04/04 10:36:47;;;;;;;5.22;3.17;;;;;;;;;;4937931;29;20042;-89
2023/04/04 10:39:37;;;;;;;6.05;3.17;;;;;;;;;;4938414;29;20020;-84
2023/04/04 10:42:05;;;;;;;5.97;2.97;;;;;;;;;;4902552;29;20043;-86
2023/04/04 10:44:32;;;;;;;5.32;2.85;;;;;;;;;;4938101;29;20042;-81
2023/04/04 10:47:05;;;;;;;4.30;2.70;;;;;;;;;;4937922;29;20139;-87
2023/04/04 10:49:31;;;;;;;4.20;2.63;;;;;;;;;;4937797;29;20086;-81
2023/04/04 10:51:57;;;;;;;5.07;2.70;;;;;;;;;;4937690;29;20051;-86
2023/04/04 10:54:24;;;;;;;3.78;3.17;;;;;;;;;;4937974;29;20390;-86
2023/04/04 10:56:50;;;;;;;3.45;2.88;;;;;;;;;;4937682;29;20119;-84
2023/04/04 10:59:18;;;;;;;8.88;3.10;;;;;;;;;;4937672;29;20103;-84
2023/04/04 11:01:56;;;;;;;3.80;2.70;;;;;;;;;;4937011;29;20075;-81
2023/04/04 11:04:36;;;;;;;4.68;2.78;;;;;;;;;;4937675;29;20036;-83
2023/04/04 11:07:12;;;;;;;5.70;2.55;;;;;;;;;;4937465;29;20031;-84
2023/04/04 11:10:12;;;;;;;5.63;2.88;;;;;;;;;;4937330;29;20031;-84
2023/04/04 11:12:44;;;;;;;7.75;2.80;;;;;;;;;;4920217;29;20074;-84
2023/04/04 11:15:11;;;;;;;3.40;2.70;;;;;;;;;;4937204;29;20030;-87
2023/04/04 11:17:56;;;;;;;3.17;2.50;;;;;;;;;;4936966;29;20024;-84
2023/04/04 11:20:29;;;;;;;2.63;2.30;;;;;;;;;;4937029;29;20019;-84
2023/04/04 11:23:06;;;;;;;6.47;3.53;;;;;;;;;;4937675;29;20090;-84
2023/04/04 11:25:32;;;;;;;5.32;3.15;;;;;;;;;;4937109;29;20083;-84
2023/04/04 11:27:58;;;;;;;4.95;3.72;;;;;;;;;;4937122;29;20027;-83
2023/04/04 11:30:25;;;;;;;6.00;2.90;;;;;;;;;;4937114;29;20048;-83
2023/04/04 11:32:51;;;;;;;6.93;3.42;;;;;;;;;;4937131;29;20024;-83
2023/04/04 11:35:17;;;;;;;4.22;3.20;;;;;;;;;;4937325;29;20030;-82
2023/04/04 11:38:02;;;;;;;5.93;2.80;;;;;;;;;;4936853;29;20028;-82
2023/04/04 11:40:41;;;;;;;5.13;3.33;;;;;;;;;;4936295;29;20035;-80
2023/04/04 11:43:11;;;;;;;3.83;3.38;;;;;;;;;;4936877;29;20513;-84
2023/04/04 11:45:43;;;;;;;7.05;3.05;;;;;;;;;;4936573;29;20090;-82
2023/04/04 17:05:58;;;;;;;5.10;3.42;;;;;;;;;;4937660;29;20359;-80
2023/04/04 17:08:24;;;;;;;6.93;3.92;;;;;;;;;;4939865;29;20042;-80
